sensor_id;sensor_type;location;lat;lon;timestamp;temperature;humidity
6824;DHT22;58633;49.470;11.004;2023-03-20T00:00:43;12.20;69.30
6824;DHT22;58633;49.470;11.004;2023-03-20T00:03:10;12.90;70.00
6824;DHT22;58633;49.470;11.004;2023-03-20T00:05:36;12.30;70.00
6824;DHT22;58633;49.470;11.004;2023-03-20T00:08:02;12.40;69.70
6824;DHT22;58633;49.470;11.004;2023-03-20T00:10:42;12.30;69.80
6824;DHT22;58633;49.470;11.004;2023-03-20T00:13:16;12.30;69.80
6824;DHT22;58633;49.470;11.004;2023-03-20T00:15:44;12.20;69.70
6824;DHT22;58633;49.470;11.004;2023-03-20T00:18:19;12.30;69.70
6824;DHT22;58633;49.470;11.004;2023-03-20T00:20:45;12.50;70.00
6824;DHT22;58633;49.470;11.004;2023-03-20T00:23:12;12.20;69.60
6824;DHT22;58633;49.470;11.004;2023-03-20T00:25:38;12.30;69.70
6824;DHT22;58633;49.470;11.004;2023-03-20T00:28:29;12.20;69.50
6824;DHT22;58633;49.470;11.004;2023-03-20T00:30:55;12.10;69.50
6824;DHT22;58633;49.470;11.004;2023-03-20T00:35:47;12.00;69.80
6824;DHT22;58633;49.470;11.004;2023-03-20T00:43:04;11.90;70.10
6824;DHT22;58633;49.470;11.004;2023-03-20T00:45:31;11.70;70.30
6824;DHT22;58633;49.470;11.004;2023-03-20T00:47:58;11.50;70.20
6824;DHT22;58633;49.470;11.004;2023-03-20T00:50:27;11.90;70.80
6824;DHT22;58633;49.470;11.004;2023-03-20T00:52:55;12.10;71.00
6824;DHT22;58633;49.470;11.004;2023-03-20T00:55:23;11.90;71.30
6824;DHT22;58633;49.470;11.004;2023-03-20T00:58:08;11.80;70.50
6824;DHT22;58633;49.470;11.004;2023-03-20T01:00:40;11.70;71.00
6824;DHT22;58633;49.470;11.004;2023-03-20T01:03:21;11.80;70.50
6824;DHT22;58633;49.470;11.004;2023-03-20T01:05:48;11.80;70.80
6824;DHT22;58633;49.470;11.004;2023-03-20T01:08:17;11.80;71.40
6824;DHT22;58633;49.470;11.004;2023-03-20T01:10:44;11.70;70.80
6824;DHT22;58633;49.470;11.004;2023-03-20T01:13:23;11.80;70.60
6824;DHT22;58633;49.470;11.004;2023-03-20T01:15:50;11.70;70.70
6824;DHT22;58633;49.470;11.004;2023-03-20T01:18:17;11.90;70.90
6824;DHT22;58633;49.470;11.004;2023-03-20T01:20:44;11.20;70.20
6824;DHT22;58633;49.470;11.004;2023-03-20T01:23:10;11.60;70.90
6824;DHT22;58633;49.470;11.004;2023-03-20T01:28:03;11.70;70.90
6824;DHT22;58633;49.470;11.004;2023-03-20T01:30:36;11.70;71.10
6824;DHT22;58633;49.470;11.004;2023-03-20T01:33:05;11.70;71.00
6824;DHT22;58633;49.470;11.004;2023-03-20T01:35:36;11.70;70.90
6824;DHT22;58633;49.470;11.004;2023-03-20T01:38:01;11.60;70.80
6824;DHT22;58633;49.470;11.004;2023-03-20T01:40:44;11.50;71.00
6824;DHT22;58633;49.470;11.004;2023-03-20T01:43:13;11.80;71.30
6824;DHT22;58633;49.470;11.004;2023-03-20T01:48:20;11.70;71.10
6824;DHT22;58633;49.470;11.004;2023-03-20T01:50:47;11.80;71.10
6824;DHT22;58633;49.470;11.004;2023-03-20T01:53:23;11.60;71.00
6824;DHT22;58633;49.470;11.004;2023-03-20T01:55:53;11.80;71.10
6824;DHT22;58633;49.470;11.004;2023-03-20T01:58:34;11.70;71.00
6824;DHT22;58633;49.470;11.004;2023-03-20T02:01:02;11.70;71.10
6824;DHT22;58633;49.470;11.004;2023-03-20T02:03:28;11.70;71.20
6824;DHT22;58633;49.470;11.004;2023-03-20T02:05:54;11.70;71.20
6824;DHT22;58633;49.470;11.004;2023-03-20T02:08:26;11.70;71.70
6824;DHT22;58633;49.470;11.004;2023-03-20T02:10:52;11.70;71.20
6824;DHT22;58633;49.470;11.004;2023-03-20T02:13:18;12.00;71.50
6824;DHT22;58633;49.470;11.004;2023-03-20T02:16:08;11.70;71.20
6824;DHT22;58633;49.470;11.004;2023-03-20T02:18:36;7.90;68.80
6824;DHT22;58633;49.470;11.004;2023-03-20T02:35:31;11.60;71.80
6824;DHT22;58633;49.470;11.004;2023-03-20T02:38:12;11.50;71.70
6824;DHT22;58633;49.470;11.004;2023-03-20T02:41:06;11.50;72.70
6824;DHT22;58633;49.470;11.004;2023-03-20T02:43:53;11.60;71.90
6824;DHT22;58633;49.470;11.004;2023-03-20T02:46:39;11.70;71.90
6824;DHT22;58633;49.470;11.004;2023-03-20T02:49:29;11.50;71.70
6824;DHT22;58633;49.470;11.004;2023-03-20T02:52:48;11.60;71.60
6824;DHT22;58633;49.470;11.004;2023-03-20T02:54:56;11.60;72.10
6824;DHT22;58633;49.470;11.004;2023-03-20T02:57:42;11.50;72.10
6824;DHT22;58633;49.470;11.004;2023-03-20T03:00:29;11.70;72.40
6824;DHT22;58633;49.470;11.004;2023-03-20T03:05:53;11.40;72.30
6824;DHT22;58633;49.470;11.004;2023-03-20T03:08:22;11.40;72.30
6824;DHT22;58633;49.470;11.004;2023-03-20T03:10:59;11.40;72.90
6824;DHT22;58633;49.470;11.004;2023-03-20T03:13:28;11.40;72.60
6824;DHT22;58633;49.470;11.004;2023-03-20T03:15:59;11.50;72.90
6824;DHT22;58633;49.470;11.004;2023-03-20T03:18:29;11.40;72.80
6824;DHT22;58633;49.470;11.004;2023-03-20T03:20:57;11.50;72.90
6824;DHT22;58633;49.470;11.004;2023-03-20T03:23:41;11.30;72.60
6824;DHT22;58633;49.470;11.004;2023-03-20T03:26:13;11.30;72.80
6824;DHT22;58633;49.470;11.004;2023-03-20T03:28:43;11.20;73.00
6824;DHT22;58633;49.470;11.004;2023-03-20T03:31:12;11.20;73.70
6824;DHT22;58633;49.470;11.004;2023-03-20T03:33:42;10.90;73.10
6824;DHT22;58633;49.470;11.004;2023-03-20T03:36:27;11.00;73.30
6824;DHT22;58633;49.470;11.004;2023-03-20T03:39:02;11.10;73.60
6824;DHT22;58633;49.470;11.004;2023-03-20T03:42:20;11.00;73.70
6824;DHT22;58633;49.470;11.004;2023-03-20T03:47:20;11.10;74.60
6824;DHT22;58633;49.470;11.004;2023-03-20T03:49:49;11.00;73.90
6824;DHT22;58633;49.470;11.004;2023-03-20T03:52:21;10.90;73.90
6824;DHT22;58633;49.470;11.004;2023-03-20T03:54:57;11.00;74.10
6824;DHT22;58633;49.470;11.004;2023-03-20T03:57:28;11.00;74.50
6824;DHT22;58633;49.470;11.004;2023-03-20T03:59:57;10.80;74.00
6824;DHT22;58633;49.470;11.004;2023-03-20T04:02:23;10.80;74.30
6824;DHT22;58633;49.470;11.004;2023-03-20T04:04:51;10.70;74.70
6824;DHT22;58633;49.470;11.004;2023-03-20T04:07:18;10.80;74.70
6824;DHT22;58633;49.470;11.004;2023-03-20T04:09:43;10.80;74.80
6824;DHT22;58633;49.470;11.004;2023-03-20T04:12:31;10.70;74.80
6824;DHT22;58633;49.470;11.004;2023-03-20T04:14:57;10.80;75.10
6824;DHT22;58633;49.470;11.004;2023-03-20T04:17:24;10.60;75.40
6824;DHT22;58633;49.470;11.004;2023-03-20T04:22:15;10.60;75.20
6824;DHT22;58633;49.470;11.004;2023-03-20T04:24:41;10.60;75.40
6824;DHT22;58633;49.470;11.004;2023-03-20T04:27:06;10.70;75.90
6824;DHT22;58633;49.470;11.004;2023-03-20T04:29:32;10.60;76.50
6824;DHT22;58633;49.470;11.004;2023-03-20T04:31:58;10.50;75.70
6824;DHT22;58633;49.470;11.004;2023-03-20T04:34:24;10.60;76.30
6824;DHT22;58633;49.470;11.004;2023-03-20T04:36:49;10.50;76.70
6824;DHT22;58633;49.470;11.004;2023-03-20T04:39:15;10.60;76.30
6824;DHT22;58633;49.470;11.004;2023-03-20T04:41:41;10.50;76.00
6824;DHT22;58633;49.470;11.004;2023-03-20T04:46:33;10.50;76.50
6824;DHT22;58633;49.470;11.004;2023-03-20T04:48:58;10.40;76.70
6824;DHT22;58633;49.470;11.004;2023-03-20T04:51:24;10.30;77.10
6824;DHT22;58633;49.470;11.004;2023-03-20T04:53:50;10.40;77.40
6824;DHT22;58633;49.470;11.004;2023-03-20T05:01:07;10.30;77.60
6824;DHT22;58633;49.470;11.004;2023-03-20T05:10:51;10.10;78.50
6824;DHT22;58633;49.470;11.004;2023-03-20T05:13:17;10.20;79.80
6824;DHT22;58633;49.470;11.004;2023-03-20T05:15:43;10.20;79.50
6824;DHT22;58633;49.470;11.004;2023-03-20T05:18:08;10.20;80.40
6824;DHT22;58633;49.470;11.004;2023-03-20T05:20:34;10.20;80.70
6824;DHT22;58633;49.470;11.004;2023-03-20T05:25:26;10.30;80.40
6824;DHT22;58633;49.470;11.004;2023-03-20T05:27:52;10.30;81.50
6824;DHT22;58633;49.470;11.004;2023-03-20T05:32:44;10.10;81.30
6824;DHT22;58633;49.470;11.004;2023-03-20T05:35:10;10.10;82.30
6824;DHT22;58633;49.470;11.004;2023-03-20T05:37:37;10.30;83.10
6824;DHT22;58633;49.470;11.004;2023-03-20T05:40:03;10.30;83.30
6824;DHT22;58633;49.470;11.004;2023-03-20T05:44:55;10.30;82.80
6824;DHT22;58633;49.470;11.004;2023-03-20T05:57:05;10.30;82.70
6824;DHT22;58633;49.470;11.004;2023-03-20T05:59:31;10.50;83.00
6824;DHT22;58633;49.470;11.004;2023-03-20T06:01:56;10.30;83.80
6824;DHT22;58633;49.470;11.004;2023-03-20T06:04:22;10.30;82.90
6824;DHT22;58633;49.470;11.004;2023-03-20T06:06:47;10.30;82.50
6824;DHT22;58633;49.470;11.004;2023-03-20T06:09:13;10.10;82.10
6824;DHT22;58633;49.470;11.004;2023-03-20T06:14:04;10.50;85.10
6824;DHT22;58633;49.470;11.004;2023-03-20T06:16:30;10.40;84.30
6824;DHT22;58633;49.470;11.004;2023-03-20T06:21:22;10.40;84.30
6824;DHT22;58633;49.470;11.004;2023-03-20T06:23:48;10.50;83.90
6824;DHT22;58633;49.470;11.004;2023-03-20T06:26:13;10.50;84.30
6824;DHT22;58633;49.470;11.004;2023-03-20T06:28:39;10.50;83.90
6824;DHT22;58633;49.470;11.004;2023-03-20T06:31:04;10.50;84.50
6824;DHT22;58633;49.470;11.004;2023-03-20T06:33:30;10.50;84.00
6824;DHT22;58633;49.470;11.004;2023-03-20T06:35:56;10.50;84.40
6824;DHT22;58633;49.470;11.004;2023-03-20T06:38:22;10.50;84.60
6824;DHT22;58633;49.470;11.004;2023-03-20T06:45:39;10.60;85.00
6824;DHT22;58633;49.470;11.004;2023-03-20T06:48:08;10.60;84.80
6824;DHT22;58633;49.470;11.004;2023-03-20T06:53:00;10.50;84.10
6824;DHT22;58633;49.470;11.004;2023-03-20T07:00:17;10.50;85.60
6824;DHT22;58633;49.470;11.004;2023-03-20T07:02:44;10.70;86.40
6824;DHT22;58633;49.470;11.004;2023-03-20T07:07:36;11.00;86.30
6824;DHT22;58633;49.470;11.004;2023-03-20T07:10:02;10.90;84.00
6824;DHT22;58633;49.470;11.004;2023-03-20T07:12:28;10.60;84.20
6824;DHT22;58633;49.470;11.004;2023-03-20T07:19:47;10.90;83.60
6824;DHT22;58633;49.470;11.004;2023-03-20T07:22:24;10.90;84.20
6824;DHT22;58633;49.470;11.004;2023-03-20T07:24:50;10.80;83.90
6824;DHT22;58633;49.470;11.004;2023-03-20T07:27:16;10.90;83.70
6824;DHT22;58633;49.470;11.004;2023-03-20T07:29:42;11.00;83.90
6824;DHT22;58633;49.470;11.004;2023-03-20T07:32:08;11.10;83.00
6824;DHT22;58633;49.470;11.004;2023-03-20T07:34:33;11.00;83.50
6824;DHT22;58633;49.470;11.004;2023-03-20T07:39:25;11.10;82.60
6824;DHT22;58633;49.470;11.004;2023-03-20T07:41:51;11.20;82.90
6824;DHT22;58633;49.470;11.004;2023-03-20T07:44:17;11.10;81.80
6824;DHT22;58633;49.470;11.004;2023-03-20T07:46:44;11.20;81.80
6824;DHT22;58633;49.470;11.004;2023-03-20T07:49:12;11.40;81.30
6824;DHT22;58633;49.470;11.004;2023-03-20T07:51:38;11.30;81.00
6824;DHT22;58633;49.470;11.004;2023-03-20T07:54:04;11.30;80.90
6824;DHT22;58633;49.470;11.004;2023-03-20T07:56:30;11.30;80.60
6824;DHT22;58633;49.470;11.004;2023-03-20T08:01:21;11.20;80.30
6824;DHT22;58633;49.470;11.004;2023-03-20T08:11:05;11.10;81.00
6824;DHT22;58633;49.470;11.004;2023-03-20T08:13:31;11.20;80.90
6824;DHT22;58633;49.470;11.004;2023-03-20T08:20:48;11.60;81.40
6824;DHT22;58633;49.470;11.004;2023-03-20T08:23:15;11.40;81.80
6824;DHT22;58633;49.470;11.004;2023-03-20T08:25:41;11.40;80.60
6824;DHT22;58633;49.470;11.004;2023-03-20T08:35:24;11.50;80.00
6824;DHT22;58633;49.470;11.004;2023-03-20T08:37:50;11.50;79.60
6824;DHT22;58633;49.470;11.004;2023-03-20T08:40:15;11.50;80.10
6824;DHT22;58633;49.470;11.004;2023-03-20T08:42:41;11.50;79.20
6824;DHT22;58633;49.470;11.004;2023-03-20T08:45:07;11.50;78.70
6824;DHT22;58633;49.470;11.004;2023-03-20T08:47:33;11.50;79.20
6824;DHT22;58633;49.470;11.004;2023-03-20T08:49:59;11.40;79.20
6824;DHT22;58633;49.470;11.004;2023-03-20T08:52:24;11.50;78.70
6824;DHT22;58633;49.470;11.004;2023-03-20T08:54:51;11.60;78.60
6824;DHT22;58633;49.470;11.004;2023-03-20T08:57:17;11.50;79.10
6824;DHT22;58633;49.470;11.004;2023-03-20T09:02:10;11.70;77.70
6824;DHT22;58633;49.470;11.004;2023-03-20T09:07:01;11.70;77.30
6824;DHT22;58633;49.470;11.004;2023-03-20T09:09:28;11.60;77.70
6824;DHT22;58633;49.470;11.004;2023-03-20T09:11:57;11.70;77.50
6824;DHT22;58633;49.470;11.004;2023-03-20T09:14:24;11.70;78.00
6824;DHT22;58633;49.470;11.004;2023-03-20T09:16:50;11.80;77.20
6824;DHT22;58633;49.470;11.004;2023-03-20T09:19:16;11.90;77.20
6824;DHT22;58633;49.470;11.004;2023-03-20T09:21:42;11.80;77.20
6824;DHT22;58633;49.470;11.004;2023-03-20T09:26:34;11.90;76.50
6824;DHT22;58633;49.470;11.004;2023-03-20T09:28:59;11.80;76.70
6824;DHT22;58633;49.470;11.004;2023-03-20T09:31:25;12.10;76.70
6824;DHT22;58633;49.470;11.004;2023-03-20T09:36:17;11.90;76.20
6824;DHT22;58633;49.470;11.004;2023-03-20T09:38:43;12.00;75.90
6824;DHT22;58633;49.470;11.004;2023-03-20T09:41:23;11.90;75.80
6824;DHT22;58633;49.470;11.004;2023-03-20T09:46:41;12.00;75.80
6824;DHT22;58633;49.470;11.004;2023-03-20T09:52:33;12.00;75.40
6824;DHT22;58633;49.470;11.004;2023-03-20T09:55:07;12.20;75.40
6824;DHT22;58633;49.470;11.004;2023-03-20T09:57:56;12.20;75.10
6824;DHT22;58633;49.470;11.004;2023-03-20T10:00:27;12.10;75.00
6824;DHT22;58633;49.470;11.004;2023-03-20T10:03:05;12.10;74.80
6824;DHT22;58633;49.470;11.004;2023-03-20T10:05:41;12.10;74.60
6824;DHT22;58633;49.470;11.004;2023-03-20T10:08:12;12.10;74.40
6824;DHT22;58633;49.470;11.004;2023-03-20T10:11:12;12.30;74.40
6824;DHT22;58633;49.470;11.004;2023-03-20T10:14:04;12.30;74.00
6824;DHT22;58633;49.470;11.004;2023-03-20T10:19:21;12.30;74.40
6824;DHT22;58633;49.470;11.004;2023-03-20T10:21:56;12.30;73.60
6824;DHT22;58633;49.470;11.004;2023-03-20T10:24:38;12.30;73.50
6824;DHT22;58633;49.470;11.004;2023-03-20T10:27:32;12.40;73.60
6824;DHT22;58633;49.470;11.004;2023-03-20T10:33:39;12.40;73.00
6824;DHT22;58633;49.470;11.004;2023-03-20T10:36:19;12.70;73.20
6824;DHT22;58633;49.470;11.004;2023-03-20T10:39:04;12.50;72.60
6824;DHT22;58633;49.470;11.004;2023-03-20T10:41:44;12.60;72.20
6824;DHT22;58633;49.470;11.004;2023-03-20T10:44:22;12.60;72.70
6824;DHT22;58633;49.470;11.004;2023-03-20T10:46:52;13.10;72.60
6824;DHT22;58633;49.470;11.004;2023-03-20T10:49:31;13.00;71.70
6824;DHT22;58633;49.470;11.004;2023-03-20T10:52:06;13.00;71.20
6824;DHT22;58633;49.470;11.004;2023-03-20T10:54:40;12.90;71.10
6824;DHT22;58633;49.470;11.004;2023-03-20T10:57:14;13.10;70.90
6824;DHT22;58633;49.470;11.004;2023-03-20T10:59:50;13.00;70.60
6824;DHT22;58633;49.470;11.004;2023-03-20T11:02:18;12.90;70.50
6824;DHT22;58633;49.470;11.004;2023-03-20T11:04:44;13.00;71.20
6824;DHT22;58633;49.470;11.004;2023-03-20T11:07:22;12.90;70.00
6824;DHT22;58633;49.470;11.004;2023-03-20T11:12:32;12.80;69.50
6824;DHT22;58633;49.470;11.004;2023-03-20T11:15:13;12.80;69.50
6824;DHT22;58633;49.470;11.004;2023-03-20T11:17:39;13.00;69.60
6824;DHT22;58633;49.470;11.004;2023-03-20T11:20:05;13.10;69.40
6824;DHT22;58633;49.470;11.004;2023-03-20T11:22:31;13.10;69.30
6824;DHT22;58633;49.470;11.004;2023-03-20T11:24:59;13.10;69.90
6824;DHT22;58633;49.470;11.004;2023-03-20T11:27:30;13.20;69.40
6824;DHT22;58633;49.470;11.004;2023-03-20T11:30:01;13.20;69.40
6824;DHT22;58633;49.470;11.004;2023-03-20T11:34:55;13.10;69.60
6824;DHT22;58633;49.470;11.004;2023-03-20T11:37:33;13.30;69.00
6824;DHT22;58633;49.470;11.004;2023-03-20T11:40:12;13.20;69.40
6824;DHT22;58633;49.470;11.004;2023-03-20T11:42:38;13.20;69.00
6824;DHT22;58633;49.470;11.004;2023-03-20T11:45:16;13.20;69.40
6824;DHT22;58633;49.470;11.004;2023-03-20T11:47:42;13.30;68.90
6824;DHT22;58633;49.470;11.004;2023-03-20T11:50:31;13.40;68.60
6824;DHT22;58633;49.470;11.004;2023-03-20T11:53:00;13.40;68.50
6824;DHT22;58633;49.470;11.004;2023-03-20T11:55:31;13.50;68.70
6824;DHT22;58633;49.470;11.004;2023-03-20T11:57:59;13.50;68.40
6824;DHT22;58633;49.470;11.004;2023-03-20T12:00:47;13.40;67.90
6824;DHT22;58633;49.470;11.004;2023-03-20T12:06:05;13.50;68.00
6824;DHT22;58633;49.470;11.004;2023-03-20T12:08:34;13.60;67.90
6824;DHT22;58633;49.470;11.004;2023-03-20T12:11:07;13.60;67.80
6824;DHT22;58633;49.470;11.004;2023-03-20T12:13:42;13.50;67.60
6824;DHT22;58633;49.470;11.004;2023-03-20T12:16:13;13.70;67.70
6824;DHT22;58633;49.470;11.004;2023-03-20T12:18:40;13.80;67.60
6824;DHT22;58633;49.470;11.004;2023-03-20T12:21:07;13.80;67.50
6824;DHT22;58633;49.470;11.004;2023-03-20T12:26:34;14.10;67.50
6824;DHT22;58633;49.470;11.004;2023-03-20T12:29:35;14.20;67.50
6824;DHT22;58633;49.470;11.004;2023-03-20T12:34:50;14.10;67.30
6824;DHT22;58633;49.470;11.004;2023-03-20T12:37:17;14.10;67.00
6824;DHT22;58633;49.470;11.004;2023-03-20T12:39:54;14.00;66.60
6824;DHT22;58633;49.470;11.004;2023-03-20T12:46:16;13.80;66.90
6824;DHT22;58633;49.470;11.004;2023-03-20T12:48:34;13.90;66.70
6824;DHT22;58633;49.470;11.004;2023-03-20T12:51:18;14.10;67.40
6824;DHT22;58633;49.470;11.004;2023-03-20T12:54:01;14.10;66.10
6824;DHT22;58633;49.470;11.004;2023-03-20T12:56:56;14.00;66.50
6824;DHT22;58633;49.470;11.004;2023-03-20T12:59:49;14.10;66.60
6824;DHT22;58633;49.470;11.004;2023-03-20T13:05:39;13.80;66.20
6824;DHT22;58633;49.470;11.004;2023-03-20T13:11:28;13.70;65.50
6824;DHT22;58633;49.470;11.004;2023-03-20T13:14:13;13.70;66.00
6824;DHT22;58633;49.470;11.004;2023-03-20T13:16:53;13.60;66.40
6824;DHT22;58633;49.470;11.004;2023-03-20T13:19:38;13.70;66.30
6824;DHT22;58633;49.470;11.004;2023-03-20T13:22:12;13.70;66.50
6824;DHT22;58633;49.470;11.004;2023-03-20T13:27:44;13.70;65.80
6824;DHT22;58633;49.470;11.004;2023-03-20T13:30:37;13.70;66.20
6824;DHT22;58633;49.470;11.004;2023-03-20T13:33:35;13.60;65.90
6824;DHT22;58633;49.470;11.004;2023-03-20T13:36:28;13.80;65.70
6824;DHT22;58633;49.470;11.004;2023-03-20T13:39:02;13.90;65.30
6824;DHT22;58633;49.470;11.004;2023-03-20T13:41:30;13.80;65.80
6824;DHT22;58633;49.470;11.004;2023-03-20T13:44:02;13.90;65.80
6824;DHT22;58633;49.470;11.004;2023-03-20T13:46:32;14.00;64.90
6824;DHT22;58633;49.470;11.004;2023-03-20T13:49:17;13.80;64.50
6824;DHT22;58633;49.470;11.004;2023-03-20T13:51:57;14.00;65.10
6824;DHT22;58633;49.470;11.004;2023-03-20T14:03:05;14.00;64.90
6824;DHT22;58633;49.470;11.004;2023-03-20T14:05:37;14.40;64.60
6824;DHT22;58633;49.470;11.004;2023-03-20T14:10:45;15.00;63.60
6824;DHT22;58633;49.470;11.004;2023-03-20T14:13:13;15.00;64.00
6824;DHT22;58633;49.470;11.004;2023-03-20T14:15:49;14.90;63.00
6824;DHT22;58633;49.470;11.004;2023-03-20T14:18:17;14.90;63.40
6824;DHT22;58633;49.470;11.004;2023-03-20T14:20:52;14.90;63.40
6824;DHT22;58633;49.470;11.004;2023-03-20T14:23:22;15.30;62.60
6824;DHT22;58633;49.470;11.004;2023-03-20T14:25:53;15.10;62.20
6824;DHT22;58633;49.470;11.004;2023-03-20T14:30:46;14.90;61.90
6824;DHT22;58633;49.470;11.004;2023-03-20T14:35:49;14.60;62.00
6824;DHT22;58633;49.470;11.004;2023-03-20T14:38:26;14.50;62.30
6824;DHT22;58633;49.470;11.004;2023-03-20T14:41:27;14.50;62.10
6824;DHT22;58633;49.470;11.004;2023-03-20T14:48:53;14.50;62.90
6824;DHT22;58633;49.470;11.004;2023-03-20T14:51:21;11.80;60.50
6824;DHT22;58633;49.470;11.004;2023-03-20T14:53:56;14.50;62.90
6824;DHT22;58633;49.470;11.004;2023-03-20T14:56:32;14.40;62.80
6824;DHT22;58633;49.470;11.004;2023-03-20T14:59:05;14.40;63.00
6824;DHT22;58633;49.470;11.004;2023-03-20T15:04:33;14.50;63.00
6824;DHT22;58633;49.470;11.004;2023-03-20T15:07:09;14.30;63.20
6824;DHT22;58633;49.470;11.004;2023-03-20T15:09:41;14.30;63.10
6824;DHT22;58633;49.470;11.004;2023-03-20T15:12:08;14.30;63.10
6824;DHT22;58633;49.470;11.004;2023-03-20T15:14:44;14.90;64.10
6824;DHT22;58633;49.470;11.004;2023-03-20T15:17:20;14.20;63.60
6824;DHT22;58633;49.470;11.004;2023-03-20T15:22:18;14.10;63.20
6824;DHT22;58633;49.470;11.004;2023-03-20T15:24:54;14.00;62.80
6824;DHT22;58633;49.470;11.004;2023-03-20T15:27:23;14.00;63.20
6824;DHT22;58633;49.470;11.004;2023-03-20T15:29:52;14.00;63.20
6824;DHT22;58633;49.470;11.004;2023-03-20T15:32:19;14.00;63.20
6824;DHT22;58633;49.470;11.004;2023-03-20T15:34:46;13.90;63.80
6824;DHT22;58633;49.470;11.004;2023-03-20T15:37:14;13.90;63.50
6824;DHT22;58633;49.470;11.004;2023-03-20T15:39:46;13.90;62.90
6824;DHT22;58633;49.470;11.004;2023-03-20T15:42:15;14.20;63.60
6824;DHT22;58633;49.470;11.004;2023-03-20T15:44:44;14.10;64.00
6824;DHT22;58633;49.470;11.004;2023-03-20T15:47:13;14.10;62.50
6824;DHT22;58633;49.470;11.004;2023-03-20T15:49:41;14.00;62.90
6824;DHT22;58633;49.470;11.004;2023-03-20T15:54:49;13.80;63.40
6824;DHT22;58633;49.470;11.004;2023-03-20T15:57:51;13.90;62.90
6824;DHT22;58633;49.470;11.004;2023-03-20T16:00:22;13.80;62.80
6824;DHT22;58633;49.470;11.004;2023-03-20T16:02:50;13.80;63.00
6824;DHT22;58633;49.470;11.004;2023-03-20T16:05:17;13.50;62.80
6824;DHT22;58633;49.470;11.004;2023-03-20T16:07:43;14.20;64.10
6824;DHT22;58633;49.470;11.004;2023-03-20T16:10:29;13.50;63.10
6824;DHT22;58633;49.470;11.004;2023-03-20T16:12:55;13.60;63.30
6824;DHT22;58633;49.470;11.004;2023-03-20T16:15:26;13.60;62.90
6824;DHT22;58633;49.470;11.004;2023-03-20T16:18:04;13.50;62.50
6824;DHT22;58633;49.470;11.004;2023-03-20T16:20:39;13.90;63.00
6824;DHT22;58633;49.470;11.004;2023-03-20T16:23:07;13.60;62.50
6824;DHT22;58633;49.470;11.004;2023-03-20T16:25:34;13.50;62.20
6824;DHT22;58633;49.470;11.004;2023-03-20T16:28:00;13.40;62.20
6824;DHT22;58633;49.470;11.004;2023-03-20T16:30:32;13.50;62.90
6824;DHT22;58633;49.470;11.004;2023-03-20T16:33:03;13.40;62.50
6824;DHT22;58633;49.470;11.004;2023-03-20T16:35:38;13.40;62.50
6824;DHT22;58633;49.470;11.004;2023-03-20T16:38:15;13.30;63.00
6824;DHT22;58633;49.470;11.004;2023-03-20T16:40:46;13.40;62.80
6824;DHT22;58633;49.470;11.004;2023-03-20T16:43:16;13.30;63.20
6824;DHT22;58633;49.470;11.004;2023-03-20T16:45:51;13.20;62.60
6824;DHT22;58633;49.470;11.004;2023-03-20T16:48:23;13.30;62.50
6824;DHT22;58633;49.470;11.004;2023-03-20T16:50:58;13.50;62.80
6824;DHT22;58633;49.470;11.004;2023-03-20T16:53:27;13.30;62.50
6824;DHT22;58633;49.470;11.004;2023-03-20T16:55:55;13.10;62.40
6824;DHT22;58633;49.470;11.004;2023-03-20T16:58:26;13.10;62.60
6824;DHT22;58633;49.470;11.004;2023-03-20T17:01:02;13.10;63.10
6824;DHT22;58633;49.470;11.004;2023-03-20T17:06:26;13.00;63.00
6824;DHT22;58633;49.470;11.004;2023-03-20T17:08:54;13.20;62.70
6824;DHT22;58633;49.470;11.004;2023-03-20T17:11:32;13.10;62.70
6824;DHT22;58633;49.470;11.004;2023-03-20T17:13:58;13.00;63.10
6824;DHT22;58633;49.470;11.004;2023-03-20T17:16:24;12.90;62.50
6824;DHT22;58633;49.470;11.004;2023-03-20T17:19:12;13.10;62.90
6824;DHT22;58633;49.470;11.004;2023-03-20T17:21:38;13.00;63.10
6824;DHT22;58633;49.470;11.004;2023-03-20T17:24:04;12.90;62.60
6824;DHT22;58633;49.470;11.004;2023-03-20T17:26:30;13.10;63.10
6824;DHT22;58633;49.470;11.004;2023-03-20T17:28:55;12.90;62.70
6824;DHT22;58633;49.470;11.004;2023-03-20T17:31:21;12.90;63.10
6824;DHT22;58633;49.470;11.004;2023-03-20T17:38:47;12.80;63.00
6824;DHT22;58633;49.470;11.004;2023-03-20T17:41:14;12.60;63.00
6824;DHT22;58633;49.470;11.004;2023-03-20T17:43:40;12.90;63.50
6824;DHT22;58633;49.470;11.004;2023-03-20T17:46:11;12.50;63.20
6824;DHT22;58633;49.470;11.004;2023-03-20T17:48:41;12.50;63.20
6824;DHT22;58633;49.470;11.004;2023-03-20T17:51:07;12.60;63.80
6824;DHT22;58633;49.470;11.004;2023-03-20T17:58:25;12.50;63.70
6824;DHT22;58633;49.470;11.004;2023-03-20T18:00:53;12.60;64.30
6824;DHT22;58633;49.470;11.004;2023-03-20T18:05:46;12.40;63.50
6824;DHT22;58633;49.470;11.004;2023-03-20T18:08:14;12.60;63.90
6824;DHT22;58633;49.470;11.004;2023-03-20T18:10:42;12.50;64.40
6824;DHT22;58633;49.470;11.004;2023-03-20T18:13:07;12.50;63.80
6824;DHT22;58633;49.470;11.004;2023-03-20T18:20:31;12.40;64.00
6824;DHT22;58633;49.470;11.004;2023-03-20T18:22:57;12.20;63.80
6824;DHT22;58633;49.470;11.004;2023-03-20T18:25:23;12.60;64.10
6824;DHT22;58633;49.470;11.004;2023-03-20T18:27:51;12.40;63.90
6824;DHT22;58633;49.470;11.004;2023-03-20T18:30:20;12.50;64.30
6824;DHT22;58633;49.470;11.004;2023-03-20T18:32:46;12.40;64.30
6824;DHT22;58633;49.470;11.004;2023-03-20T18:35:12;12.10;64.10
6824;DHT22;58633;49.470;11.004;2023-03-20T18:37:41;12.50;64.50
6824;DHT22;58633;49.470;11.004;2023-03-20T18:40:25;12.30;64.30
6824;DHT22;58633;49.470;11.004;2023-03-20T18:42:52;12.20;64.40
6824;DHT22;58633;49.470;11.004;2023-03-20T18:45:18;12.30;65.10
6824;DHT22;58633;49.470;11.004;2023-03-20T18:47:44;12.40;64.80
6824;DHT22;58633;49.470;11.004;2023-03-20T18:50:28;12.20;65.20
6824;DHT22;58633;49.470;11.004;2023-03-20T18:52:57;12.20;64.70
6824;DHT22;58633;49.470;11.004;2023-03-20T18:55:24;12.30;65.40
6824;DHT22;58633;49.470;11.004;2023-03-20T18:57:50;12.20;64.70
6824;DHT22;58633;49.470;11.004;2023-03-20T19:00:21;12.10;64.70
6824;DHT22;58633;49.470;11.004;2023-03-20T19:02:48;11.90;64.50
6824;DHT22;58633;49.470;11.004;2023-03-20T19:05:15;12.10;64.90
6824;DHT22;58633;49.470;11.004;2023-03-20T19:07:41;12.20;65.70
6824;DHT22;58633;49.470;11.004;2023-03-20T19:10:23;12.00;65.00
6824;DHT22;58633;49.470;11.004;2023-03-20T19:12:50;11.90;65.00
6824;DHT22;58633;49.470;11.004;2023-03-20T19:15:16;11.80;64.90
6824;DHT22;58633;49.470;11.004;2023-03-20T19:17:42;12.10;65.20
6824;DHT22;58633;49.470;11.004;2023-03-20T19:20:37;12.10;65.40
6824;DHT22;58633;49.470;11.004;2023-03-20T19:23:09;11.90;65.30
6824;DHT22;58633;49.470;11.004;2023-03-20T19:25:35;11.90;65.10
6824;DHT22;58633;49.470;11.004;2023-03-20T19:28:02;11.80;65.60